Santa Rosa, New Mexico
Current Conditions -  °F | °C
As of 6:53 AM on Monday 20 Oct 2014 (Local Time) from KLVS Reporting Station
Clear Clear  
Wind Chill: 33°   Ceiling: Unl
Heat Index: 38°   Visibility: 10mi
Dew Point: 35°   Wind: 6mph
Humidity: 89%   Direction: 30°NNE
Pressure: 30.25"   Gusts: NA
Location:  34.94°N, 104.68°W
Report Text: KLVS 201253Z AUTO 03005KT 10SM CLR 03/02 A3025 RMK AO2 SLP195 T00330017
Loading
Personal Weather Stations






























Interactive Weather Map
Tropical Storm Tracking
New forecast layout! Learn more

10-Day Weather Forecast

Advertisements
Track Severe Weather on mobile